createdAt,value
2022-08-26T00:00:06.038Z,21.20
2022-08-26T00:02:53.608Z,21.14
2022-08-26T00:05:21.316Z,21.10
2022-08-26T00:07:51.471Z,21.10
2022-08-26T00:10:20.900Z,21.10
2022-08-26T00:12:51.593Z,21.10
2022-08-26T00:15:22.033Z,21.10
2022-08-26T00:17:51.934Z,21.08
2022-08-26T00:20:27.186Z,21.06
2022-08-26T00:22:55.537Z,21.06
2022-08-26T00:25:24.583Z,21.00
2022-08-26T00:27:52.992Z,21.10
2022-08-26T00:30:26.694Z,21.10
2022-08-26T00:32:56.062Z,21.10
2022-08-26T00:35:26.007Z,21.10
2022-08-26T00:37:57.192Z,21.10
2022-08-26T00:40:38.126Z,21.10
2022-08-26T00:43:09.614Z,21.10
2022-08-26T00:46:12.385Z,21.10
2022-08-26T00:48:46.964Z,21.10
2022-08-26T00:51:23.122Z,21.10
2022-08-26T00:53:57.144Z,21.00
2022-08-26T00:56:33.248Z,21.00
2022-08-26T00:59:08.701Z,21.00
2022-08-26T01:01:38.683Z,21.00
2022-08-26T01:04:06.438Z,20.92
2022-08-26T01:06:34.564Z,20.90
2022-08-26T01:09:03.184Z,20.90
2022-08-26T01:11:32.632Z,20.90
2022-08-26T01:14:04.576Z,20.86
2022-08-26T01:16:36.013Z,20.90
2022-08-26T01:19:21.837Z,20.90
2022-08-26T01:22:00.143Z,20.90
2022-08-26T01:24:30.839Z,20.90
2022-08-26T01:27:09.077Z,21.00
2022-08-26T01:29:40.956Z,21.00
2022-08-26T01:32:15.833Z,21.00
2022-08-26T01:34:43.610Z,21.00
2022-08-26T01:37:17.012Z,20.98
2022-08-26T01:39:49.867Z,20.90
2022-08-26T01:42:20.873Z,20.90
2022-08-26T01:45:18.368Z,20.90
2022-08-26T01:47:56.853Z,20.80
2022-08-26T01:50:30.704Z,20.80
2022-08-26T01:53:06.922Z,20.80
2022-08-26T01:55:39.267Z,20.74
2022-08-26T01:58:17.655Z,20.78
2022-08-26T02:00:48.033Z,20.80
2022-08-26T02:03:22.275Z,20.80
2022-08-26T02:06:09.214Z,20.80
2022-08-26T02:08:44.642Z,20.80
2022-08-26T02:11:13.596Z,20.70
2022-08-26T02:13:47.189Z,20.70
2022-08-26T02:16:23.889Z,20.60
2022-08-26T02:18:53.793Z,20.60
2022-08-26T02:21:22.048Z,20.60
2022-08-26T02:23:52.947Z,20.60
2022-08-26T02:26:26.930Z,20.54
2022-08-26T02:29:24.820Z,20.50
2022-08-26T02:31:55.728Z,20.40
2022-08-26T02:34:32.046Z,20.40
2022-08-26T02:37:07.504Z,20.40
2022-08-26T02:39:38.204Z,20.40
2022-08-26T02:42:06.708Z,20.40
2022-08-26T02:44:34.901Z,20.30
2022-08-26T02:47:03.687Z,20.30
2022-08-26T02:49:32.950Z,20.30
2022-08-26T02:52:01.885Z,20.22
2022-08-26T02:54:29.828Z,20.20
2022-08-26T02:56:57.656Z,20.20
2022-08-26T02:59:25.307Z,20.10
2022-08-26T03:01:56.002Z,20.10
2022-08-26T03:04:25.688Z,20.00
2022-08-26T03:06:55.462Z,20.00
2022-08-26T03:09:24.736Z,20.00
2022-08-26T03:11:52.813Z,19.94
2022-08-26T03:14:20.949Z,19.90
2022-08-26T03:16:50.954Z,19.90
2022-08-26T03:19:18.900Z,19.90
2022-08-26T03:21:47.353Z,19.80
2022-08-26T03:24:15.805Z,19.80
2022-08-26T03:26:52.708Z,19.80
2022-08-26T03:29:41.152Z,19.80
2022-08-26T03:32:09.693Z,19.74
2022-08-26T03:34:38.700Z,19.72
2022-08-26T03:37:06.517Z,19.72
2022-08-26T03:39:35.008Z,19.70
2022-08-26T03:42:02.722Z,19.70
2022-08-26T03:44:30.435Z,19.70
2022-08-26T03:46:58.179Z,19.60
2022-08-26T03:49:26.432Z,19.60
2022-08-26T03:51:56.788Z,19.62
2022-08-26T03:54:24.537Z,19.66
2022-08-26T03:56:52.477Z,19.70
2022-08-26T03:59:20.976Z,19.60
2022-08-26T04:01:48.735Z,19.60
2022-08-26T04:04:17.077Z,19.60
2022-08-26T04:06:45.299Z,19.60
2022-08-26T04:09:19.009Z,19.56
2022-08-26T04:11:50.581Z,19.50
2022-08-26T04:14:23.684Z,19.50
2022-08-26T04:16:53.927Z,19.50
2022-08-26T04:19:25.592Z,19.50
2022-08-26T04:21:54.555Z,19.50
2022-08-26T04:24:26.864Z,19.50
2022-08-26T04:26:56.587Z,19.50
2022-08-26T04:29:26.847Z,19.50
2022-08-26T04:31:55.907Z,19.50
2022-08-26T04:34:28.566Z,19.50
2022-08-26T04:36:57.973Z,19.54
2022-08-26T04:39:27.633Z,19.60
2022-08-26T04:41:55.888Z,19.60
2022-08-26T04:44:29.268Z,19.60
2022-08-26T04:46:58.440Z,19.60
2022-08-26T04:49:27.670Z,19.62
2022-08-26T04:51:55.497Z,19.70
2022-08-26T04:54:23.609Z,19.78
2022-08-26T04:56:54.149Z,19.80
2022-08-26T04:59:21.836Z,19.82
2022-08-26T05:01:53.209Z,19.90
2022-08-26T05:04:21.317Z,19.90
2022-08-26T05:06:50.376Z,20.00
2022-08-26T05:09:18.723Z,20.10
2022-08-26T05:11:48.498Z,20.18
2022-08-26T05:14:23.349Z,20.22
2022-08-26T05:16:52.619Z,20.32
2022-08-26T05:19:21.185Z,20.42
2022-08-26T05:21:49.381Z,20.54
2022-08-26T05:24:18.239Z,20.60
2022-08-26T05:26:47.223Z,20.72
2022-08-26T05:29:16.990Z,20.80
2022-08-26T05:31:44.786Z,20.90
2022-08-26T05:34:12.919Z,21.10
2022-08-26T05:36:41.278Z,21.20
2022-08-26T05:39:10.559Z,21.30
2022-08-26T05:41:41.934Z,21.46
2022-08-26T05:44:14.583Z,21.60
2022-08-26T05:46:44.716Z,21.70
2022-08-26T05:49:16.007Z,21.80
2022-08-26T05:51:47.578Z,21.94
2022-08-26T05:54:22.011Z,22.06
2022-08-26T05:56:52.268Z,22.18
2022-08-26T05:59:24.040Z,22.20
2022-08-26T06:01:55.194Z,22.30
2022-08-26T06:04:27.944Z,22.40
2022-08-26T06:06:58.600Z,22.50
2022-08-26T06:09:27.405Z,22.60
2022-08-26T06:11:56.065Z,22.70
2022-08-26T06:14:23.704Z,22.80
2022-08-26T06:16:51.807Z,22.90
2022-08-26T06:19:20.068Z,23.06
2022-08-26T06:21:54.852Z,23.20
2022-08-26T06:24:41.599Z,23.30
2022-08-26T06:27:13.556Z,23.40
2022-08-26T06:29:41.905Z,23.50
2022-08-26T06:32:09.551Z,23.54
2022-08-26T06:34:37.449Z,23.60
2022-08-26T06:37:06.357Z,23.70
2022-08-26T06:39:34.606Z,23.80
2022-08-26T06:42:03.413Z,23.80
2022-08-26T06:44:34.522Z,23.90
2022-08-26T06:47:02.162Z,24.00
2022-08-26T06:49:29.873Z,24.04
2022-08-26T06:51:58.638Z,24.10
2022-08-26T06:54:30.297Z,24.20
2022-08-26T06:56:58.945Z,24.30
2022-08-26T06:59:26.765Z,24.40
2022-08-26T07:01:55.221Z,24.50
2022-08-26T07:04:24.681Z,24.60
2022-08-26T07:06:54.067Z,24.68
2022-08-26T07:09:25.656Z,24.70
2022-08-26T07:11:56.379Z,24.80
2022-08-26T07:14:25.220Z,24.80
2022-08-26T07:16:54.891Z,24.90
2022-08-26T07:19:30.052Z,24.90
2022-08-26T07:22:03.530Z,25.00
2022-08-26T07:24:35.430Z,25.00
2022-08-26T07:27:10.173Z,25.10
2022-08-26T07:29:40.509Z,25.20
2022-08-26T07:32:10.082Z,25.20
2022-08-26T07:34:39.193Z,25.30
2022-08-26T07:37:08.730Z,25.38
2022-08-26T07:39:38.384Z,25.42
2022-08-26T07:42:13.357Z,25.50
2022-08-26T07:44:43.846Z,25.54
2022-08-26T07:47:24.752Z,25.60
2022-08-26T07:49:57.815Z,25.70
2022-08-26T07:52:29.274Z,25.70
2022-08-26T07:55:02.331Z,25.80
2022-08-26T07:57:30.813Z,25.80
2022-08-26T07:59:59.636Z,25.90
2022-08-26T08:02:29.219Z,25.90
2022-08-26T08:04:58.827Z,26.00
2022-08-26T08:07:44.415Z,26.00
2022-08-26T08:10:19.297Z,26.10
2022-08-26T08:12:50.103Z,26.10
2022-08-26T08:15:24.196Z,26.16
2022-08-26T08:17:53.071Z,26.20
2022-08-26T08:20:23.019Z,26.30
2022-08-26T08:22:52.524Z,26.40
2022-08-26T08:25:23.046Z,26.40
2022-08-26T08:27:51.094Z,26.40
2022-08-26T08:30:23.130Z,26.50
2022-08-26T08:32:52.323Z,26.60
2022-08-26T08:35:22.480Z,26.70
2022-08-26T08:37:54.350Z,26.70
2022-08-26T08:40:26.071Z,26.80
2022-08-26T08:43:07.101Z,26.80
2022-08-26T08:45:51.000Z,26.90
2022-08-26T08:48:29.560Z,26.90
2022-08-26T08:51:27.243Z,27.00
2022-08-26T08:53:56.563Z,27.00
2022-08-26T08:56:33.621Z,26.98
2022-08-26T08:59:16.677Z,27.00
2022-08-26T09:02:14.755Z,27.00
2022-08-26T09:05:34.224Z,27.10
2022-08-26T09:08:16.214Z,27.10
2022-08-26T09:10:55.202Z,27.16
2022-08-26T09:13:27.237Z,27.18
2022-08-26T09:16:13.942Z,27.20
2022-08-26T09:19:31.480Z,27.30
2022-08-26T09:22:03.671Z,27.40
2022-08-26T09:24:42.159Z,27.40
2022-08-26T09:27:46.696Z,27.50
2022-08-26T09:30:31.441Z,27.60
2022-08-26T09:33:10.231Z,27.60
2022-08-26T09:35:47.143Z,27.70
2022-08-26T09:38:33.944Z,27.70
2022-08-26T09:41:08.898Z,27.70
2022-08-26T09:43:36.925Z,27.74
2022-08-26T09:46:21.384Z,27.80
2022-08-26T09:48:53.046Z,27.80
2022-08-26T09:51:23.696Z,27.90
2022-08-26T09:54:01.189Z,27.90
2022-08-26T09:56:47.504Z,27.90
2022-08-26T09:59:29.897Z,27.90
2022-08-26T10:02:18.772Z,28.00
2022-08-26T10:04:56.441Z,28.00
2022-08-26T10:07:58.485Z,28.10
2022-08-26T10:10:33.069Z,28.10
2022-08-26T10:13:11.799Z,28.20
2022-08-26T10:16:15.534Z,28.26
2022-08-26T10:19:00.698Z,28.30
2022-08-26T10:21:54.054Z,28.40
2022-08-26T10:24:44.123Z,28.40
2022-08-26T10:27:34.496Z,28.48
2022-08-26T10:30:12.030Z,28.50
2022-08-26T10:32:50.433Z,28.50
2022-08-26T10:35:19.953Z,28.50
2022-08-26T10:37:58.557Z,28.52
2022-08-26T10:40:53.411Z,28.60
2022-08-26T10:43:31.332Z,28.70
2022-08-26T10:46:17.210Z,28.70
2022-08-26T10:48:59.921Z,28.70
2022-08-26T10:51:45.880Z,28.78
2022-08-26T10:54:44.186Z,28.80
2022-08-26T10:57:54.857Z,28.80
2022-08-26T11:00:51.446Z,28.90
2022-08-26T11:03:58.712Z,28.90
2022-08-26T11:06:31.400Z,28.98
2022-08-26T11:09:03.846Z,29.00
2022-08-26T11:11:40.694Z,28.98
2022-08-26T11:14:28.734Z,28.90
2022-08-26T11:16:59.765Z,29.00
2022-08-26T11:19:45.344Z,28.90
2022-08-26T11:22:31.186Z,28.90
2022-08-26T11:24:58.934Z,28.82
2022-08-26T11:27:27.103Z,28.80
2022-08-26T11:30:13.147Z,28.90
2022-08-26T11:32:41.129Z,28.90
2022-08-26T11:35:19.284Z,28.82
2022-08-26T11:38:01.535Z,28.80
2022-08-26T11:40:38.600Z,28.90
2022-08-26T11:43:14.948Z,28.90
2022-08-26T11:45:59.866Z,28.90
2022-08-26T11:48:28.302Z,28.90
2022-08-26T11:51:23.053Z,28.94
2022-08-26T11:53:51.559Z,29.00
2022-08-26T11:56:33.179Z,29.00
2022-08-26T11:59:09.908Z,29.08
2022-08-26T12:01:43.338Z,29.10
2022-08-26T12:04:25.091Z,29.00
2022-08-26T12:06:53.466Z,29.10
2022-08-26T12:09:29.944Z,29.10
2022-08-26T12:12:18.025Z,29.10
2022-08-26T12:14:45.635Z,29.20
2022-08-26T12:17:26.495Z,29.20
2022-08-26T12:19:54.140Z,29.20
2022-08-26T12:22:29.163Z,29.10
2022-08-26T12:25:08.833Z,29.10
2022-08-26T12:27:45.457Z,29.20
2022-08-26T12:30:23.694Z,29.20
2022-08-26T12:33:13.333Z,29.20
2022-08-26T12:35:56.514Z,29.20
2022-08-26T12:38:27.510Z,29.12
2022-08-26T12:40:57.139Z,29.10
2022-08-26T12:43:44.483Z,29.10
2022-08-26T12:46:28.459Z,29.10
2022-08-26T12:49:01.094Z,29.10
2022-08-26T12:51:32.943Z,29.10
2022-08-26T12:54:06.637Z,29.10
2022-08-26T12:56:39.048Z,29.10
2022-08-26T12:59:25.011Z,29.20
2022-08-26T13:01:54.084Z,29.20
2022-08-26T13:04:43.889Z,29.20
2022-08-26T13:07:27.361Z,29.20
2022-08-26T13:09:58.280Z,29.20
2022-08-26T13:12:38.152Z,29.20
2022-08-26T13:15:06.953Z,29.20
2022-08-26T13:17:35.982Z,29.10
2022-08-26T13:20:04.643Z,29.10
2022-08-26T13:22:33.829Z,29.20
2022-08-26T13:25:01.611Z,29.20
2022-08-26T13:27:29.586Z,29.20
2022-08-26T13:29:57.870Z,29.20
2022-08-26T13:32:27.535Z,29.20
2022-08-26T13:34:57.484Z,29.20
2022-08-26T13:37:34.940Z,29.20
2022-08-26T13:40:07.066Z,29.20
2022-08-26T13:42:34.938Z,29.20
2022-08-26T13:45:04.214Z,29.20
2022-08-26T13:47:32.558Z,29.10
2022-08-26T13:50:00.295Z,29.10
2022-08-26T13:52:30.494Z,29.10
2022-08-26T13:55:00.638Z,29.10
2022-08-26T13:57:30.265Z,29.10
2022-08-26T13:59:59.419Z,29.10
2022-08-26T14:02:28.481Z,29.10
2022-08-26T14:04:56.394Z,29.10
2022-08-26T14:07:24.291Z,29.10
2022-08-26T14:09:52.335Z,29.10
2022-08-26T14:12:19.977Z,29.10
2022-08-26T14:14:48.155Z,29.06
2022-08-26T14:17:21.932Z,29.00
2022-08-26T14:19:50.718Z,29.00
2022-08-26T14:22:22.165Z,28.90
2022-08-26T14:24:50.628Z,28.90
2022-08-26T14:27:18.460Z,28.90
2022-08-26T14:29:46.078Z,28.90
2022-08-26T14:32:27.086Z,28.90
2022-08-26T14:34:56.096Z,28.88
2022-08-26T14:37:24.466Z,28.90
2022-08-26T14:39:52.482Z,28.90
2022-08-26T14:42:25.862Z,28.90
2022-08-26T14:45:05.167Z,28.90
2022-08-26T14:47:33.198Z,28.90
2022-08-26T14:50:01.008Z,28.90
2022-08-26T14:52:29.669Z,28.90
2022-08-26T14:54:57.322Z,28.90
2022-08-26T14:57:25.008Z,28.88
2022-08-26T14:59:53.167Z,28.86
2022-08-26T15:02:33.629Z,28.80
2022-08-26T15:05:03.987Z,28.80
2022-08-26T15:07:31.935Z,28.80
2022-08-26T15:09:59.734Z,28.80
2022-08-26T15:12:27.881Z,28.80
2022-08-26T15:14:55.525Z,28.80
2022-08-26T15:17:23.482Z,28.74
2022-08-26T15:19:51.619Z,28.76
2022-08-26T15:22:19.182Z,28.74
2022-08-26T15:24:46.896Z,28.70
2022-08-26T15:27:19.234Z,28.70
2022-08-26T15:29:46.869Z,28.70
2022-08-26T15:32:14.660Z,28.66
2022-08-26T15:34:42.301Z,28.60
2022-08-26T15:37:10.056Z,28.60
2022-08-26T15:39:37.777Z,28.60
2022-08-26T15:42:05.769Z,28.52
2022-08-26T15:44:34.248Z,28.50
2022-08-26T15:47:01.947Z,28.50
2022-08-26T15:49:29.541Z,28.50
2022-08-26T15:51:57.213Z,28.50
2022-08-26T15:54:24.886Z,28.50
2022-08-26T15:56:53.181Z,28.50
2022-08-26T15:59:22.676Z,28.50
2022-08-26T16:01:51.991Z,28.50
2022-08-26T16:04:20.584Z,28.50
2022-08-26T16:06:51.512Z,28.44
2022-08-26T16:09:26.827Z,28.40
2022-08-26T16:11:58.511Z,28.40
2022-08-26T16:14:26.858Z,28.30
2022-08-26T16:16:54.848Z,28.30
2022-08-26T16:19:22.753Z,28.30
2022-08-26T16:21:51.499Z,28.24
2022-08-26T16:24:28.386Z,28.20
2022-08-26T16:26:58.277Z,28.20
2022-08-26T16:29:27.163Z,28.12
2022-08-26T16:31:54.962Z,28.10
2022-08-26T16:34:23.002Z,28.10
2022-08-26T16:36:50.654Z,28.04
2022-08-26T16:39:18.334Z,28.00
2022-08-26T16:41:46.120Z,28.00
2022-08-26T16:44:13.789Z,27.90
2022-08-26T16:46:41.765Z,27.90
2022-08-26T16:49:09.335Z,27.90
2022-08-26T16:51:38.161Z,27.80
2022-08-26T16:54:08.822Z,27.80
2022-08-26T16:56:37.947Z,27.70
2022-08-26T16:59:10.497Z,27.70
2022-08-26T17:01:38.319Z,27.60
2022-08-26T17:04:06.119Z,27.60
2022-08-26T17:06:34.329Z,27.50
2022-08-26T17:09:02.255Z,27.46
2022-08-26T17:11:30.606Z,27.40
2022-08-26T17:13:58.225Z,27.30
2022-08-26T17:16:27.482Z,27.30
2022-08-26T17:18:57.948Z,27.20
2022-08-26T17:21:28.012Z,27.20
2022-08-26T17:23:56.453Z,27.10
2022-08-26T17:26:24.113Z,27.00
2022-08-26T17:28:51.736Z,27.00
2022-08-26T17:31:21.051Z,26.90
2022-08-26T17:33:53.437Z,26.86
2022-08-26T17:36:28.179Z,26.80
2022-08-26T17:38:58.062Z,26.70
2022-08-26T17:41:27.012Z,26.66
2022-08-26T17:43:55.122Z,26.60
2022-08-26T17:46:23.605Z,26.50
2022-08-26T17:48:51.641Z,26.50
2022-08-26T17:51:20.479Z,26.40
2022-08-26T17:53:48.728Z,26.30
2022-08-26T17:56:20.659Z,26.30
2022-08-26T17:58:52.949Z,26.20
2022-08-26T18:01:23.538Z,26.10
2022-08-26T18:03:56.699Z,26.00
2022-08-26T18:06:27.279Z,25.90
2022-08-26T18:08:54.947Z,25.80
2022-08-26T18:11:24.409Z,25.80
2022-08-26T18:13:52.079Z,25.70
2022-08-26T18:16:20.548Z,25.70
2022-08-26T18:18:53.407Z,25.68
2022-08-26T18:21:26.142Z,25.60
2022-08-26T18:23:55.255Z,25.60
2022-08-26T18:26:34.940Z,25.50
2022-08-26T18:29:04.562Z,25.50
2022-08-26T18:31:33.483Z,25.44
2022-08-26T18:34:03.091Z,25.40
2022-08-26T18:36:36.816Z,25.40
2022-08-26T18:39:07.935Z,25.30
2022-08-26T18:41:43.805Z,25.30
2022-08-26T18:44:15.328Z,25.28
2022-08-26T18:46:46.229Z,25.20
2022-08-26T18:49:16.982Z,25.16
2022-08-26T18:51:46.711Z,25.10
2022-08-26T18:54:15.157Z,25.10
2022-08-26T18:56:43.799Z,25.00
2022-08-26T18:59:13.989Z,25.00
2022-08-26T19:01:42.849Z,24.90
2022-08-26T19:04:14.121Z,24.80
2022-08-26T19:06:48.368Z,24.74
2022-08-26T19:09:18.809Z,24.62
2022-08-26T19:11:49.653Z,24.60
2022-08-26T19:14:18.681Z,24.50
2022-08-26T19:16:49.136Z,24.50
2022-08-26T19:19:17.252Z,24.40
2022-08-26T19:21:47.044Z,24.40
2022-08-26T19:24:17.653Z,24.40
2022-08-26T19:26:49.823Z,24.40
2022-08-26T19:29:24.157Z,24.30
2022-08-26T19:31:51.799Z,24.30
2022-08-26T19:34:20.797Z,24.30
2022-08-26T19:36:49.842Z,24.28
2022-08-26T19:39:17.838Z,24.22
2022-08-26T19:41:45.765Z,24.20
2022-08-26T19:44:38.286Z,24.20
2022-08-26T19:47:09.673Z,24.12
2022-08-26T19:49:37.929Z,24.10
2022-08-26T19:52:06.056Z,24.10
2022-08-26T19:54:35.220Z,24.10
2022-08-26T19:57:04.075Z,24.00
2022-08-26T19:59:33.122Z,24.00
2022-08-26T20:02:01.938Z,23.90
2022-08-26T20:04:32.425Z,23.90
2022-08-26T20:07:01.957Z,23.90
2022-08-26T20:09:34.015Z,23.80
2022-08-26T20:12:05.113Z,23.80
2022-08-26T20:14:35.202Z,23.70
2022-08-26T20:17:04.829Z,23.60
2022-08-26T20:19:52.025Z,23.50
2022-08-26T20:22:21.285Z,23.48
2022-08-26T20:24:50.013Z,23.40
2022-08-26T20:27:18.104Z,23.30
2022-08-26T20:29:45.776Z,23.20
2022-08-26T20:32:13.533Z,23.20
2022-08-26T20:34:41.245Z,23.10
2022-08-26T20:37:08.868Z,23.10
2022-08-26T20:39:36.761Z,23.08
2022-08-26T20:42:06.604Z,23.00
2022-08-26T20:44:54.243Z,23.00
2022-08-26T20:47:23.217Z,23.00
2022-08-26T20:49:52.244Z,23.00
2022-08-26T20:52:20.532Z,23.00
2022-08-26T20:54:48.605Z,23.00
2022-08-26T20:57:16.351Z,23.00
2022-08-26T20:59:43.918Z,22.90
2022-08-26T21:02:11.504Z,22.90
2022-08-26T21:04:39.247Z,22.80
2022-08-26T21:07:06.951Z,22.80
2022-08-26T21:09:34.543Z,22.70
2022-08-26T21:12:02.542Z,22.70
2022-08-26T21:14:30.080Z,22.60
2022-08-26T21:16:58.463Z,22.60
2022-08-26T21:19:26.745Z,22.52
2022-08-26T21:21:54.457Z,22.50
2022-08-26T21:24:22.101Z,22.50
2022-08-26T21:26:49.876Z,22.50
2022-08-26T21:29:17.594Z,22.40
2022-08-26T21:31:46.723Z,22.44
2022-08-26T21:34:18.765Z,22.44
2022-08-26T21:36:47.987Z,22.40
2022-08-26T21:39:16.785Z,22.40
2022-08-26T21:41:45.093Z,22.40
2022-08-26T21:44:15.919Z,22.30
2022-08-26T21:46:45.877Z,22.30
2022-08-26T21:49:18.453Z,22.20
2022-08-26T21:51:48.607Z,22.20
2022-08-26T21:54:18.138Z,22.10
2022-08-26T21:56:47.541Z,22.10
2022-08-26T21:59:18.427Z,22.00
2022-08-26T22:01:47.332Z,22.00
2022-08-26T22:04:17.164Z,21.90
2022-08-26T22:06:49.825Z,21.90
2022-08-26T22:09:24.401Z,21.80
2022-08-26T22:11:54.227Z,21.80
2022-08-26T22:14:25.375Z,21.88
2022-08-26T22:16:57.680Z,21.90
2022-08-26T22:19:26.356Z,21.90
2022-08-26T22:21:55.649Z,21.90
2022-08-26T22:24:27.096Z,21.90
2022-08-26T22:26:55.527Z,21.90
2022-08-26T22:29:25.130Z,21.90
2022-08-26T22:31:53.660Z,21.90
2022-08-26T22:34:23.125Z,21.90
2022-08-26T22:36:51.408Z,21.94
2022-08-26T22:39:24.576Z,21.94
2022-08-26T22:41:53.952Z,21.96
2022-08-26T22:44:22.204Z,21.90
2022-08-26T22:46:54.255Z,21.92
2022-08-26T22:49:23.327Z,21.90
2022-08-26T22:51:51.092Z,21.90
2022-08-26T22:54:19.374Z,21.90
2022-08-26T22:56:47.094Z,21.90
2022-08-26T22:59:16.236Z,21.90
2022-08-26T23:01:44.421Z,21.90
2022-08-26T23:04:12.141Z,21.90
2022-08-26T23:06:47.437Z,21.90
2022-08-26T23:09:18.681Z,21.90
2022-08-26T23:11:48.661Z,21.90
2022-08-26T23:14:18.906Z,21.90
2022-08-26T23:16:47.756Z,21.82
2022-08-26T23:19:22.421Z,21.80
2022-08-26T23:21:51.022Z,21.80
2022-08-26T23:24:18.760Z,21.80
2022-08-26T23:26:48.114Z,21.80
2022-08-26T23:29:16.681Z,21.70
2022-08-26T23:31:45.455Z,21.70
2022-08-26T23:34:32.009Z,21.70
2022-08-26T23:37:01.021Z,21.70
2022-08-26T23:39:32.133Z,21.70
2022-08-26T23:42:01.965Z,21.70
2022-08-26T23:44:30.750Z,21.64
2022-08-26T23:46:59.404Z,21.62
2022-08-26T23:49:28.764Z,21.70
2022-08-26T23:52:15.536Z,21.70
2022-08-26T23:54:43.644Z,21.70
2022-08-26T23:57:11.356Z,21.70
2022-08-26T23:59:39.100Z,21.70
